createdAt,value
2018-10-03T00:00:33.763Z,1006.13
2018-10-03T00:01:33.784Z,1006.07
2018-10-03T00:02:33.726Z,1006.03
2018-10-03T00:03:33.763Z,1006.08
2018-10-03T00:04:33.778Z,1006.10
2018-10-03T00:05:33.780Z,1006.17
2018-10-03T00:06:33.803Z,1006.18
2018-10-03T00:07:33.772Z,1006.18
2018-10-03T00:08:33.799Z,1006.19
2018-10-03T00:09:33.821Z,1006.20
2018-10-03T00:10:33.820Z,1006.18
2018-10-03T00:11:33.793Z,1006.17
2018-10-03T00:12:33.800Z,1006.22
2018-10-03T00:13:33.867Z,1006.14
2018-10-03T00:14:33.843Z,1006.19
2018-10-03T00:15:33.869Z,1006.19
2018-10-03T00:16:33.863Z,1006.23
2018-10-03T00:17:33.859Z,1006.14
2018-10-03T00:18:33.857Z,1006.13
2018-10-03T00:19:33.853Z,1006.24
2018-10-03T00:20:33.876Z,1006.21
2018-10-03T00:21:33.874Z,1006.23
2018-10-03T00:22:33.881Z,1006.28
2018-10-03T00:23:33.878Z,1006.13
2018-10-03T00:24:33.898Z,1006.21
2018-10-03T00:25:33.874Z,1006.23
2018-10-03T00:26:33.892Z,1006.23
2018-10-03T00:27:33.924Z,1006.20
2018-10-03T00:28:33.914Z,1006.15
2018-10-03T00:29:33.917Z,1006.23
2018-10-03T00:30:33.919Z,1006.19
2018-10-03T00:31:33.926Z,1006.15
2018-10-03T00:32:33.961Z,1006.17
2018-10-03T00:33:33.958Z,1006.21
2018-10-03T00:34:33.966Z,1006.11
2018-10-03T00:35:33.965Z,1006.17
2018-10-03T00:36:33.982Z,1006.13
2018-10-03T00:37:33.991Z,1006.21
2018-10-03T00:38:33.982Z,1006.30
2018-10-03T00:39:34.005Z,1006.27
2018-10-03T00:40:33.988Z,1006.14
2018-10-03T00:41:33.981Z,1006.22
2018-10-03T00:42:34.010Z,1006.29
2018-10-03T00:43:34.045Z,1006.22
2018-10-03T00:44:34.030Z,1006.26
2018-10-03T00:45:34.009Z,1006.21
2018-10-03T00:46:34.028Z,1006.22
2018-10-03T00:47:34.021Z,1006.27
2018-10-03T00:48:34.086Z,1006.22
2018-10-03T00:49:34.067Z,1006.26
2018-10-03T00:50:34.081Z,1006.29
2018-10-03T00:51:34.050Z,1006.22
2018-10-03T00:52:34.084Z,1006.29
2018-10-03T00:53:34.063Z,1006.23
2018-10-03T00:54:34.083Z,1006.19
2018-10-03T00:55:34.131Z,1006.17
2018-10-03T00:56:34.132Z,1006.19
2018-10-03T00:57:34.105Z,1006.24
2018-10-03T00:58:34.110Z,1006.22
2018-10-03T00:59:34.124Z,1006.25
2018-10-03T01:00:34.157Z,1006.19
2018-10-03T01:01:34.158Z,1006.26
2018-10-03T01:02:34.124Z,1006.20
2018-10-03T01:03:34.149Z,1006.09
2018-10-03T01:04:34.151Z,1006.18
2018-10-03T01:05:34.144Z,1006.24
2018-10-03T01:06:34.200Z,1006.21
2018-10-03T01:07:34.205Z,1006.27
2018-10-03T01:08:34.166Z,1006.25
2018-10-03T01:09:34.184Z,1006.18
2018-10-03T01:10:34.192Z,1006.28
2018-10-03T01:11:34.240Z,1006.23
2018-10-03T01:12:34.239Z,1006.20
2018-10-03T01:13:34.206Z,1006.21
2018-10-03T01:14:34.288Z,1006.17
2018-10-03T01:15:34.214Z,1006.23
2018-10-03T01:16:34.241Z,1006.24
2018-10-03T01:17:34.277Z,1006.26
2018-10-03T01:18:34.271Z,1006.22
2018-10-03T01:19:34.283Z,1006.27
2018-10-03T01:20:34.264Z,1006.20
2018-10-03T01:21:34.289Z,1006.21
2018-10-03T01:22:34.310Z,1006.28
2018-10-03T01:23:34.285Z,1006.27
2018-10-03T01:24:34.324Z,1006.25
2018-10-03T01:25:34.315Z,1006.26
2018-10-03T01:26:34.304Z,1006.18
2018-10-03T01:27:34.326Z,1006.15
2018-10-03T01:28:34.350Z,1006.14
2018-10-03T01:29:34.459Z,1006.14
2018-10-03T01:30:34.331Z,1006.11
2018-10-03T01:31:34.335Z,1006.21
2018-10-03T01:32:34.388Z,1006.27
2018-10-03T01:33:34.388Z,1006.18
2018-10-03T01:34:34.368Z,1006.23
2018-10-03T01:35:34.376Z,1006.23
2018-10-03T01:36:34.374Z,1006.15
2018-10-03T01:37:34.395Z,1006.03
2018-10-03T01:38:34.437Z,1006.29
2018-10-03T01:39:34.405Z,1006.34
2018-10-03T01:40:34.402Z,1006.26
2018-10-03T01:41:34.412Z,1006.35
2018-10-03T01:42:34.421Z,1006.40
2018-10-03T01:43:34.465Z,1006.54
2018-10-03T01:44:34.477Z,1006.40
2018-10-03T01:45:34.490Z,1006.42
2018-10-03T01:46:34.455Z,1006.41
2018-10-03T01:47:34.467Z,1006.44
2018-10-03T01:48:34.461Z,1006.48
2018-10-03T01:49:34.466Z,1006.56
2018-10-03T01:50:34.518Z,1006.55
2018-10-03T01:51:34.517Z,1006.58
2018-10-03T01:52:34.493Z,1006.62
2018-10-03T01:53:34.504Z,1006.56
2018-10-03T01:54:34.557Z,1006.58
2018-10-03T01:55:34.512Z,1006.56
2018-10-03T01:56:34.556Z,1006.58
2018-10-03T01:57:34.580Z,1006.64
2018-10-03T01:58:34.538Z,1006.70
2018-10-03T01:59:34.547Z,1006.62
2018-10-03T02:00:34.542Z,1006.60
2018-10-03T02:01:34.615Z,1006.63
2018-10-03T02:02:34.567Z,1006.50
2018-10-03T02:03:34.545Z,1006.55
2018-10-03T02:04:34.630Z,1006.59
2018-10-03T02:05:34.601Z,1006.62
2018-10-03T02:06:34.574Z,1006.59
2018-10-03T02:07:34.645Z,1006.63
2018-10-03T02:08:34.611Z,1006.60
2018-10-03T02:09:34.603Z,1006.60
2018-10-03T02:10:34.588Z,1006.64
2018-10-03T02:11:34.599Z,1006.62
2018-10-03T02:12:34.616Z,1006.54
2018-10-03T02:13:34.643Z,1006.60
2018-10-03T02:14:34.631Z,1006.62
2018-10-03T02:15:34.637Z,1006.61
2018-10-03T02:16:34.632Z,1006.61
2018-10-03T02:17:34.665Z,1006.68
2018-10-03T02:18:34.686Z,1006.51
2018-10-03T02:19:34.685Z,1006.58
2018-10-03T02:20:34.677Z,1006.58
2018-10-03T02:21:34.687Z,1006.64
2018-10-03T02:22:34.699Z,1006.53
2018-10-03T02:23:34.679Z,1006.53
2018-10-03T02:24:34.721Z,1006.54
2018-10-03T02:25:34.694Z,1006.52
2018-10-03T02:26:34.741Z,1006.60
2018-10-03T02:27:34.732Z,1006.59
2018-10-03T02:28:34.728Z,1006.72
2018-10-03T02:29:34.761Z,1006.59
2018-10-03T02:30:34.748Z,1006.51
2018-10-03T02:31:34.760Z,1006.52
2018-10-03T02:32:34.745Z,1006.50
2018-10-03T02:33:34.814Z,1006.55
2018-10-03T02:34:34.784Z,1006.50
2018-10-03T02:35:34.797Z,1006.53
2018-10-03T02:36:34.790Z,1006.45
2018-10-03T02:37:34.776Z,1006.52
2018-10-03T02:38:34.822Z,1006.54
2018-10-03T02:39:34.823Z,1006.54
2018-10-03T02:40:34.867Z,1006.60
2018-10-03T02:41:34.856Z,1006.53
2018-10-03T02:42:34.854Z,1006.59
2018-10-03T02:43:34.874Z,1006.62
2018-10-03T02:44:35.472Z,1006.62
2018-10-03T02:45:34.859Z,1006.60
2018-10-03T02:46:34.835Z,1006.65
2018-10-03T02:47:34.886Z,1006.68
2018-10-03T02:48:34.871Z,1006.61
2018-10-03T02:49:34.875Z,1006.50
2018-10-03T02:50:34.855Z,1006.69
2018-10-03T02:51:34.877Z,1006.60
2018-10-03T02:52:34.875Z,1006.66
2018-10-03T02:53:34.911Z,1006.62
2018-10-03T02:54:34.895Z,1006.69
2018-10-03T02:55:34.942Z,1006.61
2018-10-03T02:56:34.908Z,1006.70
2018-10-03T02:57:34.901Z,1006.65
2018-10-03T02:58:34.940Z,1006.64
2018-10-03T02:59:34.951Z,1006.69
2018-10-03T03:00:34.958Z,1006.76
2018-10-03T03:01:34.958Z,1006.61
2018-10-03T03:02:34.971Z,1006.75
2018-10-03T03:03:34.941Z,1006.68
2018-10-03T03:04:34.960Z,1006.76
2018-10-03T03:05:35.038Z,1006.70
2018-10-03T03:06:34.962Z,1006.75
2018-10-03T03:07:34.979Z,1006.81
2018-10-03T03:08:35.043Z,1006.71
2018-10-03T03:09:34.988Z,1006.74
2018-10-03T03:10:35.052Z,1006.70
2018-10-03T03:11:34.994Z,1006.72
2018-10-03T03:12:35.008Z,1006.85
2018-10-03T03:13:35.013Z,1006.75
2018-10-03T03:14:35.056Z,1006.75
2018-10-03T03:15:35.048Z,1006.60
2018-10-03T03:16:35.090Z,1006.81
2018-10-03T03:17:35.030Z,1006.70
2018-10-03T03:18:35.046Z,1006.71
2018-10-03T03:19:35.047Z,1006.73
2018-10-03T03:20:35.098Z,1006.71
2018-10-03T03:21:35.066Z,1006.70
2018-10-03T03:22:35.064Z,1006.76
2018-10-03T03:23:35.076Z,1006.70
2018-10-03T03:24:35.077Z,1006.61
2018-10-03T03:25:35.274Z,1006.70
2018-10-03T03:26:35.095Z,1006.72
2018-10-03T03:27:35.109Z,1006.78
2018-10-03T03:28:35.123Z,1006.64
2018-10-03T03:29:35.120Z,1006.87
2018-10-03T03:30:35.132Z,1006.83
2018-10-03T03:31:35.166Z,1006.83
2018-10-03T03:32:35.146Z,1006.79
2018-10-03T03:33:35.140Z,1006.75
2018-10-03T03:34:35.152Z,1006.78
2018-10-03T03:35:35.151Z,1006.78
2018-10-03T03:36:35.181Z,1006.75
2018-10-03T03:37:35.177Z,1006.87
2018-10-03T03:38:35.178Z,1006.79
2018-10-03T03:39:35.229Z,1006.81
2018-10-03T03:40:35.186Z,1006.79
2018-10-03T03:41:35.207Z,1006.76
2018-10-03T03:42:35.206Z,1006.77
2018-10-03T03:43:35.212Z,1006.81
2018-10-03T03:44:35.214Z,1006.88
2018-10-03T03:45:35.255Z,1006.79
2018-10-03T03:46:35.224Z,1006.82
2018-10-03T03:47:35.242Z,1006.87
2018-10-03T03:48:35.241Z,1006.90
2018-10-03T03:49:35.247Z,1006.77
2018-10-03T03:50:35.287Z,1006.89
2018-10-03T03:51:35.268Z,1006.89
2018-10-03T03:52:35.275Z,1006.89
2018-10-03T03:53:35.277Z,1006.87
2018-10-03T03:54:35.285Z,1006.82
2018-10-03T03:55:35.334Z,1006.86
2018-10-03T03:56:35.298Z,1006.82
2018-10-03T03:57:35.301Z,1006.94
2018-10-03T03:58:35.318Z,1006.95
2018-10-03T03:59:35.316Z,1006.89
2018-10-03T04:00:35.339Z,1006.89
2018-10-03T04:01:35.345Z,1006.97
2018-10-03T04:02:35.344Z,1006.91
2018-10-03T04:03:35.340Z,1006.91
2018-10-03T04:04:35.344Z,1006.94
2018-10-03T04:05:35.371Z,1007.02
2018-10-03T04:06:35.401Z,1007.00
2018-10-03T04:07:35.376Z,1006.91
2018-10-03T04:08:35.390Z,1006.88
2018-10-03T04:09:35.406Z,1006.84
2018-10-03T04:10:35.410Z,1006.88
2018-10-03T04:11:35.396Z,1006.95
2018-10-03T04:12:35.439Z,1006.91
2018-10-03T04:13:35.484Z,1006.84
2018-10-03T04:14:35.425Z,1006.87
2018-10-03T04:15:35.433Z,1006.88
2018-10-03T04:16:35.450Z,1006.87
2018-10-03T04:17:35.503Z,1007.01
2018-10-03T04:18:35.450Z,1006.89
2018-10-03T04:19:35.467Z,1006.92
2018-10-03T04:20:35.459Z,1006.86
2018-10-03T04:21:35.467Z,1006.80
2018-10-03T04:22:35.513Z,1006.85
2018-10-03T04:23:35.474Z,1006.90
2018-10-03T04:24:35.487Z,1006.92
2018-10-03T04:25:35.493Z,1006.91
2018-10-03T04:26:35.497Z,1006.93
2018-10-03T04:27:35.510Z,1006.92
2018-10-03T04:28:35.571Z,1007.04
2018-10-03T04:29:35.520Z,1006.92
2018-10-03T04:30:35.526Z,1006.96
2018-10-03T04:31:35.529Z,1006.95
2018-10-03T04:32:35.543Z,1007.03
2018-10-03T04:33:35.549Z,1007.02
2018-10-03T04:34:35.605Z,1006.97
2018-10-03T04:35:35.578Z,1006.97
2018-10-03T04:36:35.570Z,1006.82
2018-10-03T04:37:35.564Z,1006.98
2018-10-03T04:38:35.570Z,1006.87
2018-10-03T04:39:35.586Z,1006.94
2018-10-03T04:40:35.611Z,1006.99
2018-10-03T04:41:35.598Z,1006.92
2018-10-03T04:42:35.600Z,1007.02
2018-10-03T04:43:35.615Z,1006.97
2018-10-03T04:44:35.610Z,1007.04
2018-10-03T04:45:35.655Z,1007.05
2018-10-03T04:46:35.662Z,1007.12
2018-10-03T04:47:35.646Z,1006.99
2018-10-03T04:48:35.647Z,1007.05
2018-10-03T04:49:35.644Z,1007.03
2018-10-03T04:50:35.650Z,1007.04
2018-10-03T04:51:35.714Z,1007.08
2018-10-03T04:52:35.697Z,1007.09
2018-10-03T04:53:35.678Z,1007.11
2018-10-03T04:54:35.706Z,1007.05
2018-10-03T04:55:35.699Z,1007.19
2018-10-03T04:56:35.697Z,1007.02
2018-10-03T04:57:35.753Z,1007.06
2018-10-03T04:58:35.715Z,1007.09
2018-10-03T04:59:35.721Z,1007.18
2018-10-03T05:00:35.725Z,1007.18
2018-10-03T05:01:35.742Z,1007.19
2018-10-03T05:02:35.765Z,1007.05
2018-10-03T05:03:35.738Z,1007.20
2018-10-03T05:04:35.743Z,1007.15
2018-10-03T05:05:35.754Z,1007.31
2018-10-03T05:06:35.764Z,1007.27
2018-10-03T05:07:35.800Z,1007.25
2018-10-03T05:08:35.793Z,1007.24
2018-10-03T05:09:35.791Z,1007.28
2018-10-03T05:10:35.799Z,1007.32
2018-10-03T05:11:35.802Z,1007.35
2018-10-03T05:12:35.825Z,1007.29
2018-10-03T05:13:35.810Z,1007.31
2018-10-03T05:14:35.833Z,1007.32
2018-10-03T05:15:35.875Z,1007.22
2018-10-03T05:16:35.833Z,1007.32
2018-10-03T05:17:35.849Z,1007.21
2018-10-03T05:18:35.861Z,1007.13
2018-10-03T05:19:35.869Z,1007.19
2018-10-03T05:20:35.871Z,1007.19
2018-10-03T05:21:35.873Z,1007.30
2018-10-03T05:22:35.880Z,1007.28
2018-10-03T05:23:35.892Z,1007.22
2018-10-03T05:24:35.918Z,1007.42
2018-10-03T05:25:35.893Z,1007.33
2018-10-03T05:26:35.913Z,1007.41
2018-10-03T05:27:35.911Z,1007.30
2018-10-03T05:28:35.918Z,1007.39
2018-10-03T05:29:35.924Z,1007.50
2018-10-03T05:30:36.002Z,1007.43
2018-10-03T05:31:35.948Z,1007.47
2018-10-03T05:32:35.943Z,1007.48
2018-10-03T05:33:35.960Z,1007.52
2018-10-03T05:34:35.999Z,1007.51
2018-10-03T05:35:35.972Z,1007.55
2018-10-03T05:36:35.988Z,1007.45
2018-10-03T05:37:35.983Z,1007.49
2018-10-03T05:38:35.991Z,1007.57
2018-10-03T05:39:36.069Z,1007.51
2018-10-03T05:40:36.000Z,1007.57
2018-10-03T05:41:35.996Z,1007.54
2018-10-03T05:42:36.041Z,1007.64
2018-10-03T05:43:36.022Z,1007.63
2018-10-03T05:44:36.035Z,1007.62
2018-10-03T05:45:36.022Z,1007.69
2018-10-03T05:46:36.037Z,1007.73
2018-10-03T05:47:36.068Z,1007.63
2018-10-03T05:48:36.122Z,1007.72
2018-10-03T05:49:36.051Z,1007.71
2018-10-03T05:50:36.059Z,1007.70
2018-10-03T05:51:36.076Z,1007.64
2018-10-03T05:52:36.084Z,1007.83
2018-10-03T05:53:36.080Z,1007.86
2018-10-03T05:54:36.144Z,1007.85
2018-10-03T05:55:36.125Z,1007.80
2018-10-03T05:56:36.105Z,1007.83
2018-10-03T05:57:36.102Z,1007.93
2018-10-03T05:58:36.176Z,1007.93
2018-10-03T05:59:36.129Z,1007.92
2018-10-03T06:00:36.137Z,1008.00
2018-10-03T06:01:36.136Z,1008.08
2018-10-03T06:02:36.188Z,1008.08
2018-10-03T06:03:36.153Z,1007.94
2018-10-03T06:04:36.167Z,1007.93
2018-10-03T06:05:36.168Z,1007.94
2018-10-03T06:06:36.196Z,1007.98
2018-10-03T06:07:36.183Z,1007.95
2018-10-03T06:08:36.185Z,1007.97
2018-10-03T06:09:36.315Z,1008.02
2018-10-03T06:10:36.194Z,1008.02
2018-10-03T06:11:36.207Z,1008.14
2018-10-03T06:12:36.222Z,1008.03
2018-10-03T06:13:36.225Z,1008.12
2018-10-03T06:14:36.236Z,1008.14
2018-10-03T06:15:36.241Z,1008.14
2018-10-03T06:16:36.268Z,1008.08
2018-10-03T06:17:36.253Z,1008.17
2018-10-03T06:18:36.321Z,1008.08
2018-10-03T06:19:36.253Z,1008.04
2018-10-03T06:20:36.278Z,1008.11
2018-10-03T06:21:36.288Z,1008.14
2018-10-03T06:22:36.278Z,1008.16
2018-10-03T06:23:36.307Z,1008.17
2018-10-03T06:24:36.331Z,1008.18
2018-10-03T06:25:36.308Z,1008.18
2018-10-03T06:26:36.313Z,1008.17
2018-10-03T06:27:36.308Z,1008.25
2018-10-03T06:28:36.318Z,1008.20
2018-10-03T06:29:36.341Z,1008.17
2018-10-03T06:30:36.393Z,1008.20
2018-10-03T06:31:36.340Z,1008.21
2018-10-03T06:32:36.348Z,1008.23
2018-10-03T06:33:36.420Z,1008.35
2018-10-03T06:34:36.392Z,1008.46
2018-10-03T06:35:36.381Z,1008.25
2018-10-03T06:36:36.369Z,1008.36
2018-10-03T06:37:36.397Z,1008.23
2018-10-03T06:38:36.379Z,1008.24
2018-10-03T06:39:36.438Z,1008.43
2018-10-03T06:40:36.427Z,1008.40
2018-10-03T06:41:36.436Z,1008.47
2018-10-03T06:42:36.422Z,1008.45
2018-10-03T06:43:36.431Z,1008.59
2018-10-03T06:44:36.439Z,1008.55
2018-10-03T06:45:36.511Z,1008.41
2018-10-03T06:46:36.481Z,1008.51
2018-10-03T06:47:36.458Z,1008.62
2018-10-03T06:48:36.480Z,1008.48
2018-10-03T06:49:36.482Z,1008.49
2018-10-03T06:50:36.485Z,1008.54
2018-10-03T06:51:36.494Z,1008.54
2018-10-03T06:52:36.516Z,1008.60
2018-10-03T06:53:36.499Z,1008.64
2018-10-03T06:54:36.515Z,1008.66
2018-10-03T06:55:36.796Z,1008.67
2018-10-03T06:56:36.537Z,1008.56
2018-10-03T06:57:36.564Z,1008.67
2018-10-03T06:58:36.537Z,1008.69
2018-10-03T06:59:36.578Z,1008.68
2018-10-03T07:00:36.562Z,1008.67
2018-10-03T07:01:36.573Z,1008.71
2018-10-03T07:02:36.579Z,1008.59
2018-10-03T07:03:36.581Z,1008.76
2018-10-03T07:04:36.597Z,1008.55
2018-10-03T07:05:36.644Z,1008.75
2018-10-03T07:06:36.606Z,1008.77
2018-10-03T07:07:36.595Z,1008.78
2018-10-03T07:08:36.607Z,1008.75
2018-10-03T07:09:36.610Z,1008.75
2018-10-03T07:10:36.624Z,1008.89
2018-10-03T07:11:36.686Z,1008.80
2018-10-03T07:12:36.621Z,1008.83
2018-10-03T07:13:36.655Z,1008.84
2018-10-03T07:14:36.647Z,1008.94
2018-10-03T07:15:36.677Z,1008.95
2018-10-03T07:16:36.681Z,1008.93
2018-10-03T07:17:36.689Z,1008.94
2018-10-03T07:18:36.688Z,1008.97
2018-10-03T07:19:36.684Z,1008.99
2018-10-03T07:20:36.694Z,1008.98
2018-10-03T07:21:36.728Z,1009.03
2018-10-03T07:22:36.731Z,1008.97
2018-10-03T07:23:36.723Z,1009.01
2018-10-03T07:24:36.769Z,1009.17
2018-10-03T07:25:36.789Z,1009.07
2018-10-03T07:26:36.721Z,1009.14
2018-10-03T07:27:36.762Z,1009.21
2018-10-03T07:28:36.805Z,1009.25
2018-10-03T07:29:36.775Z,1009.27
2018-10-03T07:30:36.759Z,1009.26
2018-10-03T07:31:36.770Z,1009.23
2018-10-03T07:32:36.873Z,1009.23
2018-10-03T07:33:36.824Z,1009.26
2018-10-03T07:34:36.862Z,1009.23
2018-10-03T07:35:36.797Z,1009.27
2018-10-03T07:36:36.805Z,1009.44
2018-10-03T07:37:36.829Z,1009.29
2018-10-03T07:38:36.817Z,1009.46
2018-10-03T07:39:36.896Z,1009.40
2018-10-03T07:40:36.837Z,1009.31
2018-10-03T07:41:36.845Z,1009.19
2018-10-03T07:42:36.853Z,1009.39
2018-10-03T07:43:36.849Z,1009.34
2018-10-03T07:44:36.900Z,1009.43
2018-10-03T07:45:36.864Z,1009.40
2018-10-03T07:46:36.876Z,1009.50
2018-10-03T07:47:36.896Z,1009.38
2018-10-03T07:48:36.942Z,1009.51
2018-10-03T07:49:36.945Z,1009.53
2018-10-03T07:50:36.923Z,1009.61
2018-10-03T07:51:36.921Z,1009.49
2018-10-03T07:52:36.985Z,1009.53
2018-10-03T07:53:37.021Z,1009.58
2018-10-03T07:54:36.989Z,1009.51
2018-10-03T07:55:36.961Z,1009.57
2018-10-03T07:56:36.996Z,1009.57
2018-10-03T07:57:36.953Z,1009.66
2018-10-03T07:58:37.025Z,1009.50
2018-10-03T07:59:36.981Z,1009.62
2018-10-03T08:00:37.053Z,1009.54
2018-10-03T08:01:37.000Z,1009.58
2018-10-03T08:02:37.049Z,1009.58
2018-10-03T08:03:36.997Z,1009.55
2018-10-03T08:04:37.016Z,1009.64
2018-10-03T08:05:37.071Z,1009.55
2018-10-03T08:06:37.016Z,1009.68
2018-10-03T08:07:37.038Z,1009.76
2018-10-03T08:08:37.092Z,1009.76
2018-10-03T08:09:37.050Z,1009.80
2018-10-03T08:10:37.095Z,1009.86
2018-10-03T08:11:37.063Z,1009.80
2018-10-03T08:12:37.094Z,1009.84
2018-10-03T08:13:37.123Z,1009.88
2018-10-03T08:14:37.114Z,1009.82
2018-10-03T08:15:37.133Z,1009.77
2018-10-03T08:16:37.157Z,1009.85
2018-10-03T08:17:37.231Z,1009.90
2018-10-03T08:18:37.126Z,1009.98
2018-10-03T08:19:37.158Z,1009.93
2018-10-03T08:20:37.130Z,1010.00
2018-10-03T08:21:37.177Z,1010.01
2018-10-03T08:22:37.214Z,1010.07
2018-10-03T08:23:37.196Z,1010.06
2018-10-03T08:24:37.184Z,1010.04
2018-10-03T08:25:37.193Z,1010.11
2018-10-03T08:26:37.173Z,1010.08
2018-10-03T08:27:37.190Z,1010.12
2018-10-03T08:28:37.216Z,1010.03
2018-10-03T08:29:37.229Z,1010.23
2018-10-03T08:30:37.238Z,1010.19
2018-10-03T08:31:37.270Z,1010.27
2018-10-03T08:32:37.343Z,1010.15
2018-10-03T08:33:37.271Z,1010.13
2018-10-03T08:34:37.305Z,1010.25
2018-10-03T08:35:37.282Z,1010.31
2018-10-03T08:36:37.326Z,1010.33
2018-10-03T08:37:37.309Z,1010.48
2018-10-03T08:38:37.337Z,1010.22
2018-10-03T08:39:37.279Z,1010.17
2018-10-03T08:40:37.534Z,1010.23
2018-10-03T08:41:37.323Z,1010.28
2018-10-03T08:42:37.310Z,1010.17
2018-10-03T08:43:37.318Z,1010.18
2018-10-03T08:44:37.487Z,1010.30
2018-10-03T08:45:37.415Z,1010.28
2018-10-03T08:46:37.405Z,1010.35
2018-10-03T08:47:37.349Z,1010.34
2018-10-03T08:48:37.368Z,1010.23
2018-10-03T08:49:37.407Z,1010.45
2018-10-03T08:50:37.383Z,1010.36
2018-10-03T08:51:37.383Z,1010.33
2018-10-03T08:52:37.392Z,1010.51
2018-10-03T08:53:37.411Z,1010.41
2018-10-03T08:54:37.426Z,1010.49
2018-10-03T08:55:37.499Z,1010.42
2018-10-03T08:56:37.417Z,1010.46
2018-10-03T08:57:37.423Z,1010.58
2018-10-03T08:58:37.666Z,1010.48
2018-10-03T08:59:37.452Z,1010.55
2018-10-03T09:00:37.467Z,1010.80
2018-10-03T09:01:37.484Z,1010.62
2018-10-03T09:02:37.490Z,1010.60
2018-10-03T09:03:37.492Z,1010.79
2018-10-03T09:04:37.484Z,1010.81
2018-10-03T09:05:37.523Z,1010.76
2018-10-03T09:06:37.528Z,1010.79
2018-10-03T09:07:37.520Z,1010.68
2018-10-03T09:08:38.498Z,1010.65
2018-10-03T09:09:37.581Z,1010.79
2018-10-03T09:10:37.529Z,1010.67
2018-10-03T09:11:37.631Z,1010.71
2018-10-03T09:12:37.557Z,1010.86
2018-10-03T09:13:37.578Z,1010.73
2018-10-03T09:14:37.616Z,1010.78
2018-10-03T09:15:37.598Z,1010.75
2018-10-03T09:16:37.593Z,1010.79
2018-10-03T09:17:37.614Z,1010.81
2018-10-03T09:18:37.638Z,1010.96
2018-10-03T09:19:37.628Z,1010.97
2018-10-03T09:20:37.677Z,1010.84
2018-10-03T09:21:37.644Z,1010.87
2018-10-03T09:22:37.626Z,1010.86
2018-10-03T09:23:37.673Z,1010.89
2018-10-03T09:24:37.697Z,1010.94
2018-10-03T09:25:37.727Z,1011.00
2018-10-03T09:26:37.704Z,1011.00
2018-10-03T09:27:37.725Z,1010.91
2018-10-03T09:28:38.035Z,1010.96
2018-10-03T09:29:37.722Z,1010.94
2018-10-03T09:30:37.746Z,1011.06
2018-10-03T09:31:37.754Z,1010.98
2018-10-03T09:32:37.710Z,1011.07
2018-10-03T09:33:37.719Z,1011.04
2018-10-03T09:34:37.755Z,1011.11
2018-10-03T09:35:37.768Z,1011.07
2018-10-03T09:36:37.733Z,1011.07
2018-10-03T09:37:37.797Z,1011.18
2018-10-03T09:38:37.761Z,1011.23
2018-10-03T09:39:37.893Z,1011.22
2018-10-03T09:40:37.780Z,1011.37
2018-10-03T09:41:37.820Z,1011.16
2018-10-03T09:42:37.814Z,1011.24
2018-10-03T09:43:37.815Z,1011.20
2018-10-03T09:44:37.861Z,1011.22
2018-10-03T09:45:37.841Z,1011.27
2018-10-03T09:46:37.881Z,1011.29
2018-10-03T09:47:37.865Z,1011.32
2018-10-03T09:48:37.831Z,1011.47
2018-10-03T09:49:37.864Z,1011.41
2018-10-03T09:50:38.874Z,1011.50
2018-10-03T09:51:37.952Z,1011.39
2018-10-03T09:52:37.856Z,1011.39
2018-10-03T09:53:37.899Z,1011.52
2018-10-03T09:54:38.143Z,1011.51
2018-10-03T09:55:38.028Z,1011.61
2018-10-03T09:56:38.222Z,1011.63
2018-10-03T09:57:37.927Z,1011.60
2018-10-03T09:58:37.921Z,1011.60
2018-10-03T09:59:37.945Z,1011.68
2018-10-03T10:00:38.053Z,1011.59
2018-10-03T10:01:37.983Z,1011.81
2018-10-03T10:02:37.945Z,1011.82
2018-10-03T10:03:37.968Z,1011.79
2018-10-03T10:04:37.969Z,1011.90
2018-10-03T10:05:37.982Z,1011.77
2018-10-03T10:06:38.092Z,1011.74
2018-10-03T10:07:38.297Z,1011.73
2018-10-03T10:08:38.037Z,1011.76
2018-10-03T10:09:38.072Z,1011.77
2018-10-03T10:10:38.073Z,1011.83
2018-10-03T10:11:38.304Z,1011.93
2018-10-03T10:12:38.077Z,1011.86
2018-10-03T10:13:38.044Z,1011.84
2018-10-03T10:14:38.138Z,1011.81
2018-10-03T10:15:38.056Z,1011.90
2018-10-03T10:16:38.969Z,1011.86
2018-10-03T10:17:38.093Z,1011.94
2018-10-03T10:18:38.149Z,1011.91
2018-10-03T10:19:38.092Z,1011.86
2018-10-03T10:20:38.223Z,1011.87
2018-10-03T10:21:38.135Z,1011.81
2018-10-03T10:22:38.196Z,1011.93
2018-10-03T10:23:38.598Z,1011.98
2018-10-03T10:24:38.330Z,1011.96
2018-10-03T10:25:38.148Z,1011.98
2018-10-03T10:26:38.165Z,1011.93
2018-10-03T10:27:38.174Z,1012.02
2018-10-03T10:28:38.394Z,1012.06
2018-10-03T10:29:38.235Z,1011.96
2018-10-03T10:30:38.184Z,1011.95
2018-10-03T10:31:38.232Z,1011.97
2018-10-03T10:32:38.925Z,1011.91
2018-10-03T10:33:38.336Z,1011.97
2018-10-03T10:34:38.421Z,1011.91
2018-10-03T10:35:38.280Z,1012.05
2018-10-03T10:36:38.346Z,1012.10
2018-10-03T10:37:38.521Z,1012.17
2018-10-03T10:38:38.389Z,1012.19
2018-10-03T10:39:38.280Z,1012.16
2018-10-03T10:40:38.548Z,1012.37
2018-10-03T10:41:38.593Z,1012.20
2018-10-03T10:42:38.299Z,1012.24
2018-10-03T10:43:38.353Z,1012.01
2018-10-03T10:44:38.349Z,1012.05
2018-10-03T10:45:38.476Z,1012.06
2018-10-03T10:46:38.353Z,1012.02
2018-10-03T10:47:38.391Z,1012.11
2018-10-03T10:48:38.329Z,1012.17
2018-10-03T10:49:38.368Z,1012.18
2018-10-03T10:50:38.360Z,1012.26
2018-10-03T10:51:38.372Z,1012.19
2018-10-03T10:52:38.423Z,1012.35
2018-10-03T10:53:38.406Z,1012.33
2018-10-03T10:54:38.482Z,1012.33
2018-10-03T10:55:38.406Z,1012.54
2018-10-03T10:56:38.732Z,1012.37
2018-10-03T10:57:38.434Z,1012.67
2018-10-03T10:58:38.559Z,1012.52
2018-10-03T10:59:38.446Z,1012.68
2018-10-03T11:00:38.440Z,1012.63
2018-10-03T11:01:38.446Z,1012.73
2018-10-03T11:02:38.831Z,1013.02
2018-10-03T11:03:38.473Z,1012.92
2018-10-03T11:04:38.880Z,1012.72
2018-10-03T11:05:38.869Z,1012.79
2018-10-03T11:06:38.591Z,1012.81
2018-10-03T11:07:38.492Z,1012.80
2018-10-03T11:08:38.499Z,1012.80
2018-10-03T11:09:38.557Z,1012.73
2018-10-03T11:10:38.558Z,1012.73
2018-10-03T11:11:38.539Z,1012.67
2018-10-03T11:12:38.540Z,1012.73
2018-10-03T11:13:38.548Z,1012.65
2018-10-03T11:14:38.546Z,1012.64
2018-10-03T11:15:39.094Z,1012.68
2018-10-03T11:16:38.558Z,1012.65
2018-10-03T11:17:38.615Z,1012.70
2018-10-03T11:18:38.668Z,1012.66
2018-10-03T11:19:38.592Z,1012.75
2018-10-03T11:20:38.702Z,1012.67
2018-10-03T11:21:38.773Z,1012.90
2018-10-03T11:22:38.678Z,1012.81
2018-10-03T11:23:38.746Z,1012.82
2018-10-03T11:24:38.801Z,1012.81
2018-10-03T11:25:38.642Z,1012.84
2018-10-03T11:26:38.827Z,1012.76
2018-10-03T11:27:38.660Z,1012.81
2018-10-03T11:28:38.747Z,1012.85
2018-10-03T11:29:38.670Z,1012.87
2018-10-03T11:30:38.697Z,1012.91
2018-10-03T11:31:38.664Z,1012.89
2018-10-03T11:32:38.740Z,1012.91
2018-10-03T11:33:38.697Z,1012.92
2018-10-03T11:34:38.729Z,1012.93
2018-10-03T11:35:38.711Z,1012.89
2018-10-03T11:36:38.738Z,1013.00
2018-10-03T11:37:38.720Z,1012.96
2018-10-03T11:38:38.717Z,1013.00
2018-10-03T11:39:38.770Z,1012.90
2018-10-03T11:40:38.781Z,1012.96
2018-10-03T11:41:38.778Z,1012.95
2018-10-03T11:42:38.747Z,1013.00
2018-10-03T11:43:38.802Z,1013.06
2018-10-03T11:44:38.911Z,1013.02
2018-10-03T11:45:38.817Z,1013.08
2018-10-03T11:46:38.782Z,1013.05
2018-10-03T11:47:38.785Z,1013.05
2018-10-03T11:48:38.824Z,1013.14
2018-10-03T11:49:38.880Z,1013.06
2018-10-03T11:50:38.865Z,1013.05
2018-10-03T11:51:39.048Z,1013.04
2018-10-03T11:52:38.858Z,1013.10
2018-10-03T11:53:38.835Z,1013.12
2018-10-03T11:54:38.930Z,1013.16
2018-10-03T11:55:38.866Z,1013.14
2018-10-03T11:56:39.048Z,1013.17
2018-10-03T11:57:39.334Z,1013.30
2018-10-03T11:58:38.907Z,1013.23
2018-10-03T11:59:38.962Z,1013.10
2018-10-03T12:00:38.915Z,1013.17
2018-10-03T12:01:38.894Z,1013.14
2018-10-03T12:02:38.927Z,1013.14
2018-10-03T12:03:38.930Z,1013.06
2018-10-03T12:04:39.016Z,1013.11
2018-10-03T12:05:38.942Z,1013.16